sensor_id;sensor_type;location;lat;lon;timestamp;temperature;humidity
10911;DHT22;5508;49.150;11.030;2023-06-19T00:00:27;20.60;39.10
10911;DHT22;5508;49.150;11.030;2023-06-19T00:03:27;20.70;39.70
10911;DHT22;5508;49.150;11.030;2023-06-19T00:06:28;20.60;40.20
10911;DHT22;5508;49.150;11.030;2023-06-19T00:09:28;20.60;39.60
10911;DHT22;5508;49.150;11.030;2023-06-19T00:12:29;20.60;39.70
10911;DHT22;5508;49.150;11.030;2023-06-19T00:15:30;20.60;40.10
10911;DHT22;5508;49.150;11.030;2023-06-19T00:18:30;20.60;41.90
10911;DHT22;5508;49.150;11.030;2023-06-19T00:21:31;20.60;40.80
10911;DHT22;5508;49.150;11.030;2023-06-19T00:24:31;20.50;40.80
10911;DHT22;5508;49.150;11.030;2023-06-19T00:27:32;20.50;41.60
10911;DHT22;5508;49.150;11.030;2023-06-19T00:30:33;20.60;42.40
10911;DHT22;5508;49.150;11.030;2023-06-19T00:33:33;20.50;41.30
10911;DHT22;5508;49.150;11.030;2023-06-19T00:36:34;20.30;41.80
10911;DHT22;5508;49.150;11.030;2023-06-19T00:39:40;20.30;42.80
10911;DHT22;5508;49.150;11.030;2023-06-19T00:42:41;20.30;41.00
10911;DHT22;5508;49.150;11.030;2023-06-19T00:45:42;20.30;40.50
10911;DHT22;5508;49.150;11.030;2023-06-19T00:48:42;20.30;42.40
10911;DHT22;5508;49.150;11.030;2023-06-19T00:51:43;20.20;42.20
10911;DHT22;5508;49.150;11.030;2023-06-19T00:54:44;20.10;42.80
10911;DHT22;5508;49.150;11.030;2023-06-19T00:57:45;20.00;42.40
10911;DHT22;5508;49.150;11.030;2023-06-19T01:00:46;20.00;43.20
10911;DHT22;5508;49.150;11.030;2023-06-19T01:03:47;20.00;42.30
10911;DHT22;5508;49.150;11.030;2023-06-19T01:06:53;19.90;41.90
10911;DHT22;5508;49.150;11.030;2023-06-19T01:10:02;19.90;42.30
10911;DHT22;5508;49.150;11.030;2023-06-19T01:16:19;20.00;44.00
10911;DHT22;5508;49.150;11.030;2023-06-19T01:19:21;20.00;42.80
10911;DHT22;5508;49.150;11.030;2023-06-19T01:22:28;20.00;42.50
10911;DHT22;5508;49.150;11.030;2023-06-19T01:25:28;19.90;43.70
10911;DHT22;5508;49.150;11.030;2023-06-19T01:28:29;19.90;42.40
10911;DHT22;5508;49.150;11.030;2023-06-19T01:31:40;20.10;42.10
10911;DHT22;5508;49.150;11.030;2023-06-19T01:34:41;20.00;43.40
10911;DHT22;5508;49.150;11.030;2023-06-19T01:37:43;19.90;44.90
10911;DHT22;5508;49.150;11.030;2023-06-19T01:40:44;19.80;54.70
10911;DHT22;5508;49.150;11.030;2023-06-19T01:43:46;19.40;56.30
10911;DHT22;5508;49.150;11.030;2023-06-19T01:46:49;19.00;62.80
10911;DHT22;5508;49.150;11.030;2023-06-19T01:49:50;18.90;62.30
10911;DHT22;5508;49.150;11.030;2023-06-19T01:52:51;18.60;63.60
10911;DHT22;5508;49.150;11.030;2023-06-19T01:55:52;18.50;68.40
10911;DHT22;5508;49.150;11.030;2023-06-19T01:58:52;18.40;70.70
10911;DHT22;5508;49.150;11.030;2023-06-19T02:01:55;18.40;72.60
10911;DHT22;5508;49.150;11.030;2023-06-19T02:04:56;18.30;78.10
10911;DHT22;5508;49.150;11.030;2023-06-19T02:07:57;18.20;76.50
10911;DHT22;5508;49.150;11.030;2023-06-19T02:10:58;18.20;74.60
10911;DHT22;5508;49.150;11.030;2023-06-19T02:13:58;18.20;76.80
10911;DHT22;5508;49.150;11.030;2023-06-19T02:16:59;18.20;74.00
10911;DHT22;5508;49.150;11.030;2023-06-19T02:19:59;18.20;76.40
10911;DHT22;5508;49.150;11.030;2023-06-19T02:23:01;18.10;76.60
10911;DHT22;5508;49.150;11.030;2023-06-19T02:26:01;18.00;76.90
10911;DHT22;5508;49.150;11.030;2023-06-19T02:29:02;18.00;78.70
10911;DHT22;5508;49.150;11.030;2023-06-19T02:32:03;18.00;79.90
10911;DHT22;5508;49.150;11.030;2023-06-19T02:35:07;17.90;82.80
10911;DHT22;5508;49.150;11.030;2023-06-19T02:38:09;17.90;80.80
10911;DHT22;5508;49.150;11.030;2023-06-19T02:41:09;18.00;78.60
10911;DHT22;5508;49.150;11.030;2023-06-19T02:44:10;18.00;81.40
10911;DHT22;5508;49.150;11.030;2023-06-19T02:47:10;18.00;79.40
10911;DHT22;5508;49.150;11.030;2023-06-19T02:50:11;17.90;82.40
10911;DHT22;5508;49.150;11.030;2023-06-19T02:53:12;17.90;82.50
10911;DHT22;5508;49.150;11.030;2023-06-19T02:56:12;17.90;82.40
10911;DHT22;5508;49.150;11.030;2023-06-19T02:59:13;17.80;83.70
10911;DHT22;5508;49.150;11.030;2023-06-19T03:02:14;17.70;85.80
10911;DHT22;5508;49.150;11.030;2023-06-19T03:05:14;17.70;85.10
10911;DHT22;5508;49.150;11.030;2023-06-19T03:08:16;17.70;85.10
10911;DHT22;5508;49.150;11.030;2023-06-19T03:11:17;17.60;85.50
10911;DHT22;5508;49.150;11.030;2023-06-19T03:14:17;17.60;86.30
10911;DHT22;5508;49.150;11.030;2023-06-19T03:17:18;17.70;84.90
10911;DHT22;5508;49.150;11.030;2023-06-19T03:20:18;17.60;86.80
10911;DHT22;5508;49.150;11.030;2023-06-19T03:23:19;17.60;86.40
10911;DHT22;5508;49.150;11.030;2023-06-19T03:26:20;17.60;88.30
10911;DHT22;5508;49.150;11.030;2023-06-19T03:29:21;17.50;87.70
10911;DHT22;5508;49.150;11.030;2023-06-19T03:32:22;17.50;87.70
10911;DHT22;5508;49.150;11.030;2023-06-19T03:35:22;17.50;86.60
10911;DHT22;5508;49.150;11.030;2023-06-19T03:38:23;17.50;87.40
10911;DHT22;5508;49.150;11.030;2023-06-19T03:41:23;17.40;86.50
10911;DHT22;5508;49.150;11.030;2023-06-19T03:44:24;17.40;86.70
10911;DHT22;5508;49.150;11.030;2023-06-19T03:47:25;17.30;87.60
10911;DHT22;5508;49.150;11.030;2023-06-19T03:50:25;17.30;86.90
10911;DHT22;5508;49.150;11.030;2023-06-19T03:53:26;17.40;86.40
10911;DHT22;5508;49.150;11.030;2023-06-19T03:56:26;17.50;85.20
10911;DHT22;5508;49.150;11.030;2023-06-19T03:59:27;17.50;84.40
10911;DHT22;5508;49.150;11.030;2023-06-19T04:02:28;17.60;84.30
10911;DHT22;5508;49.150;11.030;2023-06-19T04:05:28;17.70;85.50
10911;DHT22;5508;49.150;11.030;2023-06-19T04:08:29;17.70;83.40
10911;DHT22;5508;49.150;11.030;2023-06-19T04:11:29;17.80;82.80
10911;DHT22;5508;49.150;11.030;2023-06-19T04:14:30;17.70;83.70
10911;DHT22;5508;49.150;11.030;2023-06-19T04:17:30;17.80;82.20
10911;DHT22;5508;49.150;11.030;2023-06-19T04:20:31;17.80;81.10
10911;DHT22;5508;49.150;11.030;2023-06-19T04:23:32;17.90;81.70
10911;DHT22;5508;49.150;11.030;2023-06-19T04:26:33;17.80;80.50
10911;DHT22;5508;49.150;11.030;2023-06-19T04:29:34;17.90;79.40
10911;DHT22;5508;49.150;11.030;2023-06-19T04:32:35;18.00;78.60
10911;DHT22;5508;49.150;11.030;2023-06-19T04:35:35;18.10;76.00
10911;DHT22;5508;49.150;11.030;2023-06-19T04:38:40;18.40;72.10
10911;DHT22;5508;49.150;11.030;2023-06-19T04:41:44;18.60;67.80
10911;DHT22;5508;49.150;11.030;2023-06-19T04:44:48;18.90;66.40
10911;DHT22;5508;49.150;11.030;2023-06-19T04:47:48;19.30;63.80
10911;DHT22;5508;49.150;11.030;2023-06-19T04:50:49;19.60;61.20
10911;DHT22;5508;49.150;11.030;2023-06-19T04:53:49;19.80;62.00
10911;DHT22;5508;49.150;11.030;2023-06-19T04:56:50;19.90;64.00
10911;DHT22;5508;49.150;11.030;2023-06-19T04:59:51;19.90;61.80
10911;DHT22;5508;49.150;11.030;2023-06-19T05:02:51;20.20;60.00
10911;DHT22;5508;49.150;11.030;2023-06-19T05:05:52;20.50;56.30
10911;DHT22;5508;49.150;11.030;2023-06-19T05:08:53;20.80;54.50
10911;DHT22;5508;49.150;11.030;2023-06-19T05:11:53;21.00;57.70
10911;DHT22;5508;49.150;11.030;2023-06-19T05:14:54;21.00;56.40
10911;DHT22;5508;49.150;11.030;2023-06-19T05:17:55;21.00;53.60
10911;DHT22;5508;49.150;11.030;2023-06-19T05:20:55;20.80;56.40
10911;DHT22;5508;49.150;11.030;2023-06-19T05:23:56;20.70;54.50
10911;DHT22;5508;49.150;11.030;2023-06-19T05:26:56;20.70;54.40
10911;DHT22;5508;49.150;11.030;2023-06-19T05:29:57;20.60;53.60
10911;DHT22;5508;49.150;11.030;2023-06-19T05:32:57;20.50;54.90
10911;DHT22;5508;49.150;11.030;2023-06-19T05:35:58;20.50;55.00
10911;DHT22;5508;49.150;11.030;2023-06-19T05:38:58;20.50;57.30
10911;DHT22;5508;49.150;11.030;2023-06-19T05:41:59;20.40;58.10
10911;DHT22;5508;49.150;11.030;2023-06-19T05:45:00;20.50;57.40
10911;DHT22;5508;49.150;11.030;2023-06-19T05:48:00;20.70;57.70
10911;DHT22;5508;49.150;11.030;2023-06-19T05:51:01;20.80;58.50
10911;DHT22;5508;49.150;11.030;2023-06-19T05:54:01;21.10;60.50
10911;DHT22;5508;49.150;11.030;2023-06-19T05:57:04;21.10;56.10
10911;DHT22;5508;49.150;11.030;2023-06-19T06:00:05;21.00;58.00
10911;DHT22;5508;49.150;11.030;2023-06-19T06:03:07;20.90;61.80
10911;DHT22;5508;49.150;11.030;2023-06-19T06:06:07;20.90;61.20
10911;DHT22;5508;49.150;11.030;2023-06-19T06:09:08;20.80;59.20
10911;DHT22;5508;49.150;11.030;2023-06-19T06:12:12;20.90;57.80
10911;DHT22;5508;49.150;11.030;2023-06-19T06:15:12;20.90;58.70
10911;DHT22;5508;49.150;11.030;2023-06-19T06:18:13;20.80;60.40
10911;DHT22;5508;49.150;11.030;2023-06-19T06:21:14;20.70;61.90
10911;DHT22;5508;49.150;11.030;2023-06-19T06:24:15;20.70;59.00
10911;DHT22;5508;49.150;11.030;2023-06-19T06:27:15;20.80;60.90
10911;DHT22;5508;49.150;11.030;2023-06-19T06:30:16;20.80;62.70
10911;DHT22;5508;49.150;11.030;2023-06-19T06:33:17;20.90;61.80
10911;DHT22;5508;49.150;11.030;2023-06-19T06:36:18;21.00;60.70
10911;DHT22;5508;49.150;11.030;2023-06-19T06:39:19;21.00;63.40
10911;DHT22;5508;49.150;11.030;2023-06-19T06:42:19;21.00;62.30
10911;DHT22;5508;49.150;11.030;2023-06-19T06:45:20;21.10;63.80
10911;DHT22;5508;49.150;11.030;2023-06-19T06:48:20;21.10;61.50
10911;DHT22;5508;49.150;11.030;2023-06-19T06:51:21;21.30;62.90
10911;DHT22;5508;49.150;11.030;2023-06-19T06:54:22;21.40;63.20
10911;DHT22;5508;49.150;11.030;2023-06-19T06:57:23;21.50;61.50
10911;DHT22;5508;49.150;11.030;2023-06-19T07:00:24;21.60;61.30
10911;DHT22;5508;49.150;11.030;2023-06-19T07:03:24;21.60;61.00
10911;DHT22;5508;49.150;11.030;2023-06-19T07:06:25;21.80;61.40
10911;DHT22;5508;49.150;11.030;2023-06-19T07:09:25;21.80;60.80
10911;DHT22;5508;49.150;11.030;2023-06-19T07:12:26;21.90;60.50
10911;DHT22;5508;49.150;11.030;2023-06-19T07:15:26;21.90;61.00
10911;DHT22;5508;49.150;11.030;2023-06-19T07:18:27;22.00;62.50
10911;DHT22;5508;49.150;11.030;2023-06-19T07:21:29;22.10;61.50
10911;DHT22;5508;49.150;11.030;2023-06-19T07:24:30;22.10;62.40
10911;DHT22;5508;49.150;11.030;2023-06-19T07:27:31;21.80;62.30
10911;DHT22;5508;49.150;11.030;2023-06-19T07:30:31;21.60;66.00
10911;DHT22;5508;49.150;11.030;2023-06-19T07:33:32;21.30;68.30
10911;DHT22;5508;49.150;11.030;2023-06-19T07:36:33;21.30;70.50
10911;DHT22;5508;49.150;11.030;2023-06-19T07:39:33;21.20;70.40
10911;DHT22;5508;49.150;11.030;2023-06-19T07:42:34;21.20;69.00
10911;DHT22;5508;49.150;11.030;2023-06-19T07:45:34;21.30;68.30
10911;DHT22;5508;49.150;11.030;2023-06-19T07:48:35;21.60;67.40
10911;DHT22;5508;49.150;11.030;2023-06-19T07:51:36;21.70;66.90
10911;DHT22;5508;49.150;11.030;2023-06-19T07:54:36;21.90;64.30
10911;DHT22;5508;49.150;11.030;2023-06-19T07:57:47;22.00;62.20
10911;DHT22;5508;49.150;11.030;2023-06-19T08:00:48;22.10;64.00
10911;DHT22;5508;49.150;11.030;2023-06-19T08:03:48;22.40;62.10
10911;DHT22;5508;49.150;11.030;2023-06-19T08:06:49;22.50;60.90
10911;DHT22;5508;49.150;11.030;2023-06-19T08:09:50;22.50;62.00
10911;DHT22;5508;49.150;11.030;2023-06-19T08:12:50;22.50;64.70
10911;DHT22;5508;49.150;11.030;2023-06-19T08:15:51;22.40;65.60
10911;DHT22;5508;49.150;11.030;2023-06-19T08:18:52;22.30;68.90
10911;DHT22;5508;49.150;11.030;2023-06-19T08:21:52;22.20;69.00
10911;DHT22;5508;49.150;11.030;2023-06-19T08:24:53;22.10;70.40
10911;DHT22;5508;49.150;11.030;2023-06-19T08:27:54;22.00;71.80
10911;DHT22;5508;49.150;11.030;2023-06-19T08:30:54;21.80;71.30
10911;DHT22;5508;49.150;11.030;2023-06-19T08:33:56;21.90;73.00
10911;DHT22;5508;49.150;11.030;2023-06-19T08:36:57;22.00;72.20
10911;DHT22;5508;49.150;11.030;2023-06-19T08:39:57;22.10;70.90
10911;DHT22;5508;49.150;11.030;2023-06-19T08:42:59;22.20;69.30
10911;DHT22;5508;49.150;11.030;2023-06-19T08:46:19;22.10;68.30
10911;DHT22;5508;49.150;11.030;2023-06-19T08:49:20;22.30;68.00
10911;DHT22;5508;49.150;11.030;2023-06-19T08:52:21;22.60;66.90
10911;DHT22;5508;49.150;11.030;2023-06-19T08:55:22;22.60;65.60
10911;DHT22;5508;49.150;11.030;2023-06-19T08:58:23;23.00;63.80
10911;DHT22;5508;49.150;11.030;2023-06-19T09:01:26;23.20;62.10
10911;DHT22;5508;49.150;11.030;2023-06-19T09:04:27;23.10;62.50
10911;DHT22;5508;49.150;11.030;2023-06-19T09:07:28;23.70;61.40
10911;DHT22;5508;49.150;11.030;2023-06-19T09:10:28;24.00;60.80
10911;DHT22;5508;49.150;11.030;2023-06-19T09:13:30;24.60;57.00
10911;DHT22;5508;49.150;11.030;2023-06-19T09:16:39;24.50;57.30
10911;DHT22;5508;49.150;11.030;2023-06-19T09:19:51;24.40;53.20
10911;DHT22;5508;49.150;11.030;2023-06-19T09:22:55;24.50;54.50
10911;DHT22;5508;49.150;11.030;2023-06-19T09:25:57;24.10;57.50
10911;DHT22;5508;49.150;11.030;2023-06-19T09:28:58;23.70;58.10
10911;DHT22;5508;49.150;11.030;2023-06-19T09:31:58;23.90;59.30
10911;DHT22;5508;49.150;11.030;2023-06-19T09:34:59;24.00;59.30
10911;DHT22;5508;49.150;11.030;2023-06-19T09:38:00;23.50;60.30
10911;DHT22;5508;49.150;11.030;2023-06-19T09:41:02;23.70;59.50
10911;DHT22;5508;49.150;11.030;2023-06-19T09:44:04;24.20;57.00
10911;DHT22;5508;49.150;11.030;2023-06-19T09:47:16;24.60;55.70
10911;DHT22;5508;49.150;11.030;2023-06-19T09:50:22;25.10;54.80
10911;DHT22;5508;49.150;11.030;2023-06-19T09:53:27;25.00;56.00
10911;DHT22;5508;49.150;11.030;2023-06-19T09:56:28;24.90;54.40
10911;DHT22;5508;49.150;11.030;2023-06-19T09:59:29;24.50;54.50
10911;DHT22;5508;49.150;11.030;2023-06-19T10:02:30;24.70;54.60
10911;DHT22;5508;49.150;11.030;2023-06-19T10:05:31;24.90;55.10
10911;DHT22;5508;49.150;11.030;2023-06-19T10:08:40;24.80;54.90
10911;DHT22;5508;49.150;11.030;2023-06-19T10:11:53;25.20;54.10
10911;DHT22;5508;49.150;11.030;2023-06-19T10:14:53;25.20;53.50
10911;DHT22;5508;49.150;11.030;2023-06-19T10:18:00;25.20;53.10
10911;DHT22;5508;49.150;11.030;2023-06-19T10:21:01;25.60;52.30
10911;DHT22;5508;49.150;11.030;2023-06-19T10:24:02;26.00;53.30
10911;DHT22;5508;49.150;11.030;2023-06-19T10:27:03;26.30;51.10
10911;DHT22;5508;49.150;11.030;2023-06-19T10:30:05;26.40;49.40
10911;DHT22;5508;49.150;11.030;2023-06-19T10:33:16;26.40;50.10
10911;DHT22;5508;49.150;11.030;2023-06-19T10:36:19;26.60;48.70
10911;DHT22;5508;49.150;11.030;2023-06-19T10:39:20;26.80;48.10
10911;DHT22;5508;49.150;11.030;2023-06-19T10:42:21;26.50;49.10
10911;DHT22;5508;49.150;11.030;2023-06-19T10:45:21;26.70;49.10
10911;DHT22;5508;49.150;11.030;2023-06-19T10:48:28;26.90;47.60
10911;DHT22;5508;49.150;11.030;2023-06-19T10:51:30;26.80;48.30
10911;DHT22;5508;49.150;11.030;2023-06-19T10:54:32;26.50;48.70
10911;DHT22;5508;49.150;11.030;2023-06-19T10:57:32;26.10;48.30
10911;DHT22;5508;49.150;11.030;2023-06-19T11:00:33;25.90;48.50
10911;DHT22;5508;49.150;11.030;2023-06-19T11:03:34;26.30;48.40
10911;DHT22;5508;49.150;11.030;2023-06-19T11:06:35;26.40;48.00
10911;DHT22;5508;49.150;11.030;2023-06-19T11:09:36;26.40;49.10
10911;DHT22;5508;49.150;11.030;2023-06-19T11:12:37;26.90;48.50
10911;DHT22;5508;49.150;11.030;2023-06-19T11:15:37;27.20;46.40
10911;DHT22;5508;49.150;11.030;2023-06-19T11:18:38;27.80;45.50
10911;DHT22;5508;49.150;11.030;2023-06-19T11:21:39;28.10;42.70
10911;DHT22;5508;49.150;11.030;2023-06-19T11:24:46;28.00;45.50
10911;DHT22;5508;49.150;11.030;2023-06-19T11:27:47;28.10;42.80
10911;DHT22;5508;49.150;11.030;2023-06-19T11:31:01;28.10;44.80
10911;DHT22;5508;49.150;11.030;2023-06-19T11:34:03;28.20;44.90
10911;DHT22;5508;49.150;11.030;2023-06-19T11:40:14;28.00;43.60
10911;DHT22;5508;49.150;11.030;2023-06-19T11:43:39;28.10;42.90
10911;DHT22;5508;49.150;11.030;2023-06-19T11:46:39;28.40;43.00
10911;DHT22;5508;49.150;11.030;2023-06-19T11:49:40;28.20;41.70
10911;DHT22;5508;49.150;11.030;2023-06-19T11:52:43;28.30;43.10
10911;DHT22;5508;49.150;11.030;2023-06-19T11:55:45;28.20;43.20
10911;DHT22;5508;49.150;11.030;2023-06-19T11:58:45;28.50;41.40
10911;DHT22;5508;49.150;11.030;2023-06-19T12:01:46;29.00;40.60
10911;DHT22;5508;49.150;11.030;2023-06-19T12:04:46;29.10;41.30
10911;DHT22;5508;49.150;11.030;2023-06-19T12:07:47;28.90;41.10
10911;DHT22;5508;49.150;11.030;2023-06-19T12:10:48;28.70;41.00
10911;DHT22;5508;49.150;11.030;2023-06-19T12:13:48;28.80;40.00
10911;DHT22;5508;49.150;11.030;2023-06-19T12:16:49;28.40;41.50
10911;DHT22;5508;49.150;11.030;2023-06-19T12:19:50;28.80;40.30
10911;DHT22;5508;49.150;11.030;2023-06-19T12:22:51;28.90;38.90
10911;DHT22;5508;49.150;11.030;2023-06-19T12:25:51;28.60;41.90
10911;DHT22;5508;49.150;11.030;2023-06-19T12:28:52;28.50;41.10
10911;DHT22;5508;49.150;11.030;2023-06-19T12:31:59;28.70;41.30
10911;DHT22;5508;49.150;11.030;2023-06-19T12:35:01;28.60;39.80
10911;DHT22;5508;49.150;11.030;2023-06-19T12:38:01;28.70;40.90
10911;DHT22;5508;49.150;11.030;2023-06-19T12:41:02;28.80;39.90
10911;DHT22;5508;49.150;11.030;2023-06-19T12:44:02;28.00;41.80
10911;DHT22;5508;49.150;11.030;2023-06-19T12:47:03;28.20;40.80
10911;DHT22;5508;49.150;11.030;2023-06-19T12:50:05;28.10;40.70
10911;DHT22;5508;49.150;11.030;2023-06-19T12:53:06;28.20;40.60
10911;DHT22;5508;49.150;11.030;2023-06-19T12:56:06;27.80;41.60
10911;DHT22;5508;49.150;11.030;2023-06-19T12:59:07;27.40;42.70
10911;DHT22;5508;49.150;11.030;2023-06-19T13:02:08;27.40;42.70
10911;DHT22;5508;49.150;11.030;2023-06-19T13:05:11;27.60;42.10
10911;DHT22;5508;49.150;11.030;2023-06-19T13:08:12;27.80;40.60
10911;DHT22;5508;49.150;11.030;2023-06-19T13:11:13;27.60;42.20
10911;DHT22;5508;49.150;11.030;2023-06-19T13:14:13;27.40;43.00
10911;DHT22;5508;49.150;11.030;2023-06-19T13:17:14;27.70;42.00
10911;DHT22;5508;49.150;11.030;2023-06-19T13:20:15;28.10;40.70
10911;DHT22;5508;49.150;11.030;2023-06-19T13:23:16;28.20;39.90
10911;DHT22;5508;49.150;11.030;2023-06-19T13:26:16;27.80;39.80
10911;DHT22;5508;49.150;11.030;2023-06-19T13:29:17;27.80;40.40
10911;DHT22;5508;49.150;11.030;2023-06-19T13:32:17;27.20;42.20
10911;DHT22;5508;49.150;11.030;2023-06-19T13:35:18;27.20;43.40
10911;DHT22;5508;49.150;11.030;2023-06-19T13:38:19;26.90;43.10
10911;DHT22;5508;49.150;11.030;2023-06-19T13:41:19;26.70;44.20
10911;DHT22;5508;49.150;11.030;2023-06-19T13:44:20;26.50;45.00
10911;DHT22;5508;49.150;11.030;2023-06-19T13:47:20;26.70;45.10
10911;DHT22;5508;49.150;11.030;2023-06-19T13:50:21;26.50;45.60
10911;DHT22;5508;49.150;11.030;2023-06-19T13:53:23;26.50;46.10
10911;DHT22;5508;49.150;11.030;2023-06-19T13:56:24;26.50;45.00
10911;DHT22;5508;49.150;11.030;2023-06-19T13:59:24;26.40;45.50
10911;DHT22;5508;49.150;11.030;2023-06-19T14:02:25;26.50;45.60
10911;DHT22;5508;49.150;11.030;2023-06-19T14:05:26;26.50;45.50
10911;DHT22;5508;49.150;11.030;2023-06-19T14:08:26;26.50;46.10
10911;DHT22;5508;49.150;11.030;2023-06-19T14:11:27;26.60;46.30
10911;DHT22;5508;49.150;11.030;2023-06-19T14:14:29;26.30;46.60
10911;DHT22;5508;49.150;11.030;2023-06-19T14:17:30;26.50;46.30
10911;DHT22;5508;49.150;11.030;2023-06-19T14:20:31;26.60;46.40
10911;DHT22;5508;49.150;11.030;2023-06-19T14:23:32;26.60;46.80
10911;DHT22;5508;49.150;11.030;2023-06-19T14:26:34;26.70;47.50
10911;DHT22;5508;49.150;11.030;2023-06-19T14:29:35;26.80;45.90
10911;DHT22;5508;49.150;11.030;2023-06-19T14:32:35;26.90;44.40
10911;DHT22;5508;49.150;11.030;2023-06-19T14:35:37;27.00;44.40
10911;DHT22;5508;49.150;11.030;2023-06-19T14:38:37;26.90;44.00
10911;DHT22;5508;49.150;11.030;2023-06-19T14:41:38;27.10;44.70
10911;DHT22;5508;49.150;11.030;2023-06-19T14:44:39;27.20;44.10
10911;DHT22;5508;49.150;11.030;2023-06-19T14:47:39;27.80;41.80
10911;DHT22;5508;49.150;11.030;2023-06-19T14:50:40;28.50;38.70
10911;DHT22;5508;49.150;11.030;2023-06-19T14:53:40;28.10;38.30
10911;DHT22;5508;49.150;11.030;2023-06-19T14:56:41;28.40;38.20
10911;DHT22;5508;49.150;11.030;2023-06-19T14:59:42;28.60;36.80
10911;DHT22;5508;49.150;11.030;2023-06-19T15:02:42;28.50;38.00
10911;DHT22;5508;49.150;11.030;2023-06-19T15:05:43;28.10;39.30
10911;DHT22;5508;49.150;11.030;2023-06-19T15:08:43;27.90;38.00
10911;DHT22;5508;49.150;11.030;2023-06-19T15:11:44;27.40;38.80
10911;DHT22;5508;49.150;11.030;2023-06-19T15:14:45;27.00;41.00
10911;DHT22;5508;49.150;11.030;2023-06-19T15:17:45;26.40;41.50
10911;DHT22;5508;49.150;11.030;2023-06-19T15:20:46;26.30;42.20
10911;DHT22;5508;49.150;11.030;2023-06-19T15:23:47;26.20;43.90
10911;DHT22;5508;49.150;11.030;2023-06-19T15:26:49;26.20;44.30
10911;DHT22;5508;49.150;11.030;2023-06-19T15:29:50;26.20;43.40
10911;DHT22;5508;49.150;11.030;2023-06-19T15:32:50;26.10;43.90
10911;DHT22;5508;49.150;11.030;2023-06-19T15:35:51;26.00;44.10
10911;DHT22;5508;49.150;11.030;2023-06-19T15:38:52;26.10;45.70
10911;DHT22;5508;49.150;11.030;2023-06-19T15:41:52;26.20;45.00
10911;DHT22;5508;49.150;11.030;2023-06-19T15:44:53;26.40;42.90
10911;DHT22;5508;49.150;11.030;2023-06-19T15:47:53;26.60;45.30
10911;DHT22;5508;49.150;11.030;2023-06-19T15:50:54;27.00;43.70
10911;DHT22;5508;49.150;11.030;2023-06-19T15:53:55;27.40;39.50
10911;DHT22;5508;49.150;11.030;2023-06-19T15:56:55;27.70;40.50
10911;DHT22;5508;49.150;11.030;2023-06-19T15:59:56;27.70;39.10
10911;DHT22;5508;49.150;11.030;2023-06-19T16:02:57;27.60;41.70
10911;DHT22;5508;49.150;11.030;2023-06-19T16:05:57;27.50;39.20
10911;DHT22;5508;49.150;11.030;2023-06-19T16:08:58;27.60;39.00
10911;DHT22;5508;49.150;11.030;2023-06-19T16:11:58;27.60;41.30
10911;DHT22;5508;49.150;11.030;2023-06-19T16:14:59;27.70;41.50
10911;DHT22;5508;49.150;11.030;2023-06-19T16:18:00;27.80;38.60
10911;DHT22;5508;49.150;11.030;2023-06-19T16:21:00;27.70;40.00
10911;DHT22;5508;49.150;11.030;2023-06-19T16:24:01;27.70;40.50
10911;DHT22;5508;49.150;11.030;2023-06-19T16:27:01;27.80;38.30
10911;DHT22;5508;49.150;11.030;2023-06-19T16:30:02;27.70;39.70
10911;DHT22;5508;49.150;11.030;2023-06-19T16:33:03;27.90;38.60
10911;DHT22;5508;49.150;11.030;2023-06-19T16:36:04;27.90;38.30
10911;DHT22;5508;49.150;11.030;2023-06-19T16:39:05;27.90;39.40
10911;DHT22;5508;49.150;11.030;2023-06-19T16:42:06;27.70;39.10
10911;DHT22;5508;49.150;11.030;2023-06-19T16:45:07;27.70;39.30
10911;DHT22;5508;49.150;11.030;2023-06-19T16:48:07;27.60;39.40
10911;DHT22;5508;49.150;11.030;2023-06-19T16:51:08;27.40;39.40
10911;DHT22;5508;49.150;11.030;2023-06-19T16:54:08;27.30;40.50
10911;DHT22;5508;49.150;11.030;2023-06-19T16:57:09;27.40;39.90
10911;DHT22;5508;49.150;11.030;2023-06-19T17:00:10;27.40;39.80
10911;DHT22;5508;49.150;11.030;2023-06-19T17:03:11;27.30;39.80
10911;DHT22;5508;49.150;11.030;2023-06-19T17:06:13;27.20;40.90
10911;DHT22;5508;49.150;11.030;2023-06-19T17:09:13;27.00;41.20
10911;DHT22;5508;49.150;11.030;2023-06-19T17:12:14;26.90;40.80
10911;DHT22;5508;49.150;11.030;2023-06-19T17:15:15;26.80;42.20
10911;DHT22;5508;49.150;11.030;2023-06-19T17:18:17;26.40;43.10
10911;DHT22;5508;49.150;11.030;2023-06-19T17:21:18;26.20;44.30
10911;DHT22;5508;49.150;11.030;2023-06-19T17:24:20;26.20;44.30
10911;DHT22;5508;49.150;11.030;2023-06-19T17:27:21;26.30;42.90
10911;DHT22;5508;49.150;11.030;2023-06-19T17:30:21;26.10;45.70
10911;DHT22;5508;49.150;11.030;2023-06-19T17:33:22;26.10;46.10
10911;DHT22;5508;49.150;11.030;2023-06-19T17:36:23;26.10;46.70
10911;DHT22;5508;49.150;11.030;2023-06-19T17:39:23;26.00;47.20
10911;DHT22;5508;49.150;11.030;2023-06-19T17:42:24;25.80;47.90
10911;DHT22;5508;49.150;11.030;2023-06-19T17:45:24;25.80;49.50
10911;DHT22;5508;49.150;11.030;2023-06-19T17:48:25;25.70;50.30
10911;DHT22;5508;49.150;11.030;2023-06-19T17:51:26;25.50;50.60
10911;DHT22;5508;49.150;11.030;2023-06-19T17:54:26;25.40;50.50
10911;DHT22;5508;49.150;11.030;2023-06-19T17:57:27;25.40;50.20
10911;DHT22;5508;49.150;11.030;2023-06-19T18:00:27;25.40;50.00
10911;DHT22;5508;49.150;11.030;2023-06-19T18:03:29;25.40;50.40
10911;DHT22;5508;49.150;11.030;2023-06-19T18:06:30;25.40;49.00
10911;DHT22;5508;49.150;11.030;2023-06-19T18:09:30;25.40;49.10
10911;DHT22;5508;49.150;11.030;2023-06-19T18:12:31;25.40;49.50
10911;DHT22;5508;49.150;11.030;2023-06-19T18:15:31;25.40;51.60
10911;DHT22;5508;49.150;11.030;2023-06-19T18:18:32;25.20;54.20
10911;DHT22;5508;49.150;11.030;2023-06-19T18:21:33;25.10;54.70
10911;DHT22;5508;49.150;11.030;2023-06-19T18:24:33;25.10;55.10
10911;DHT22;5508;49.150;11.030;2023-06-19T18:27:34;24.90;55.20
10911;DHT22;5508;49.150;11.030;2023-06-19T18:30:34;24.90;56.30
10911;DHT22;5508;49.150;11.030;2023-06-19T18:33:35;24.70;56.40
10911;DHT22;5508;49.150;11.030;2023-06-19T18:36:35;24.50;58.50
10911;DHT22;5508;49.150;11.030;2023-06-19T18:39:36;24.40;58.90
10911;DHT22;5508;49.150;11.030;2023-06-19T18:42:37;24.20;59.50
10911;DHT22;5508;49.150;11.030;2023-06-19T18:45:40;24.10;60.50
10911;DHT22;5508;49.150;11.030;2023-06-19T18:48:40;24.00;60.30
10911;DHT22;5508;49.150;11.030;2023-06-19T18:51:42;23.90;61.40
10911;DHT22;5508;49.150;11.030;2023-06-19T18:54:42;23.70;62.60
10911;DHT22;5508;49.150;11.030;2023-06-19T18:57:43;23.60;63.40
10911;DHT22;5508;49.150;11.030;2023-06-19T19:00:44;23.40;65.40
10911;DHT22;5508;49.150;11.030;2023-06-19T19:03:45;23.30;65.40
10911;DHT22;5508;49.150;11.030;2023-06-19T19:06:45;23.20;66.20
10911;DHT22;5508;49.150;11.030;2023-06-19T19:09:46;23.10;66.70